createdAt,value
2017-08-30T00:00:00.261Z,6.67
2017-08-30T00:02:28.634Z,6.10
2017-08-30T00:04:56.989Z,7.00
2017-08-30T00:07:25.336Z,6.90
2017-08-30T00:09:53.694Z,7.17
2017-08-30T00:12:22.032Z,7.23
2017-08-30T00:14:50.394Z,6.27
2017-08-30T00:17:18.732Z,7.03
2017-08-30T00:19:47.067Z,6.70
2017-08-30T00:22:15.430Z,6.87
2017-08-30T00:24:55.440Z,6.43
2017-08-30T00:27:23.782Z,6.93
2017-08-30T00:29:52.226Z,7.30
2017-08-30T00:32:20.573Z,7.13
2017-08-30T00:34:48.918Z,7.30
2017-08-30T00:37:17.259Z,7.57
2017-08-30T00:39:45.597Z,7.30
2017-08-30T00:42:13.939Z,7.33
2017-08-30T00:44:42.305Z,9.37
2017-08-30T00:47:10.646Z,7.40
2017-08-30T00:49:38.991Z,7.30
2017-08-30T00:52:07.335Z,9.40
2017-08-30T00:54:35.709Z,7.23
2017-08-30T00:57:04.122Z,7.73
2017-08-30T00:59:32.519Z,6.87
2017-08-30T01:02:00.854Z,7.43
2017-08-30T01:04:29.402Z,7.07
2017-08-30T01:06:57.738Z,7.57
2017-08-30T01:09:26.076Z,8.10
2017-08-30T01:11:54.477Z,8.20
2017-08-30T01:14:22.862Z,7.27
2017-08-30T01:16:51.250Z,7.60
2017-08-30T01:19:19.654Z,7.90
2017-08-30T01:21:48.042Z,7.30
2017-08-30T01:24:16.382Z,7.43
2017-08-30T01:26:44.724Z,7.80
2017-08-30T01:29:13.109Z,7.63
2017-08-30T01:31:41.450Z,7.37
2017-08-30T01:34:09.823Z,9.17
2017-08-30T01:36:38.182Z,7.50
2017-08-30T01:39:06.588Z,8.80
2017-08-30T01:41:34.972Z,10.20
2017-08-30T01:44:03.391Z,9.70
2017-08-30T01:46:31.754Z,9.07
2017-08-30T01:49:00.110Z,10.37
2017-08-30T01:51:28.536Z,10.37
2017-08-30T01:53:56.895Z,10.17
2017-08-30T01:56:25.275Z,10.33
2017-08-30T01:58:53.702Z,10.93
2017-08-30T02:01:22.056Z,10.40
2017-08-30T02:03:50.490Z,11.17
2017-08-30T02:06:18.915Z,9.90
2017-08-30T02:08:47.244Z,12.17
2017-08-30T02:11:15.675Z,12.40
2017-08-30T02:13:44.040Z,12.23
2017-08-30T02:16:12.458Z,11.80
2017-08-30T02:18:41.246Z,11.50
2017-08-30T02:21:09.632Z,12.10
2017-08-30T02:23:37.990Z,11.97
2017-08-30T02:26:06.422Z,11.60
2017-08-30T02:28:34.834Z,11.53
2017-08-30T02:31:03.183Z,10.60
2017-08-30T02:33:31.535Z,10.43
2017-08-30T02:35:59.912Z,10.73
2017-08-30T02:38:28.278Z,9.87
2017-08-30T02:40:56.634Z,10.97
2017-08-30T02:43:25.008Z,10.87
2017-08-30T02:45:53.450Z,10.20
2017-08-30T02:48:21.807Z,9.93
2017-08-30T02:50:50.142Z,11.60
2017-08-30T02:53:18.539Z,11.23
2017-08-30T02:55:46.915Z,12.27
2017-08-30T02:58:15.259Z,10.50
2017-08-30T03:00:43.719Z,10.87
2017-08-30T03:03:12.092Z,11.57
2017-08-30T03:05:40.438Z,11.97
2017-08-30T03:08:08.825Z,12.07
2017-08-30T03:10:37.267Z,10.40
2017-08-30T03:13:05.682Z,9.77
2017-08-30T03:15:34.034Z,10.70
2017-08-30T03:18:02.451Z,10.90
2017-08-30T03:20:30.844Z,10.60
2017-08-30T03:22:59.194Z,10.33
2017-08-30T03:25:27.612Z,9.67
2017-08-30T03:27:55.959Z,9.50
2017-08-30T03:30:24.401Z,10.40
2017-08-30T03:32:52.886Z,10.00
2017-08-30T03:35:21.332Z,10.50
2017-08-30T03:37:49.779Z,9.17
2017-08-30T03:40:18.113Z,9.53
2017-08-30T03:42:46.553Z,9.60
2017-08-30T03:45:14.898Z,9.60
2017-08-30T03:47:43.246Z,9.87
2017-08-30T03:50:11.634Z,9.80
2017-08-30T03:52:40.051Z,9.40
2017-08-30T03:55:08.410Z,10.20
2017-08-30T03:57:36.797Z,10.10
2017-08-30T04:00:05.130Z,9.00
2017-08-30T04:02:33.490Z,8.90
2017-08-30T04:05:01.869Z,9.43
2017-08-30T04:07:30.214Z,9.97
2017-08-30T04:09:58.654Z,10.80
2017-08-30T04:12:27.000Z,9.60
2017-08-30T04:14:55.443Z,10.37
2017-08-30T04:17:23.826Z,10.13
2017-08-30T04:19:52.166Z,9.80
2017-08-30T04:22:20.514Z,9.10
2017-08-30T04:24:48.859Z,9.60
2017-08-30T04:27:17.221Z,9.53
2017-08-30T04:29:45.595Z,9.80
2017-08-30T04:32:13.930Z,9.97
2017-08-30T04:34:42.358Z,9.50
2017-08-30T04:37:10.758Z,10.13
2017-08-30T04:39:39.094Z,9.30
2017-08-30T04:42:07.545Z,8.33
2017-08-30T04:44:35.931Z,9.00
2017-08-30T04:47:04.278Z,10.30
2017-08-30T04:49:32.615Z,9.23
2017-08-30T04:52:00.960Z,9.67
2017-08-30T04:54:29.463Z,10.00
2017-08-30T04:56:57.834Z,9.07
2017-08-30T04:59:26.277Z,9.23
2017-08-30T05:01:54.623Z,9.50
2017-08-30T05:04:22.990Z,10.03
2017-08-30T05:06:51.356Z,9.17
2017-08-30T05:09:19.693Z,9.17
2017-08-30T05:11:48.133Z,8.50
2017-08-30T05:14:16.473Z,8.50
2017-08-30T05:16:44.919Z,9.33
2017-08-30T05:19:13.259Z,9.77
2017-08-30T05:21:41.703Z,9.27
2017-08-30T05:24:10.094Z,9.00
2017-08-30T05:26:38.437Z,8.57
2017-08-30T05:29:06.871Z,9.00
2017-08-30T05:31:35.296Z,8.77
2017-08-30T05:34:03.702Z,8.77
2017-08-30T05:36:32.061Z,9.07
2017-08-30T05:39:00.454Z,10.10
2017-08-30T05:41:28.835Z,8.47
2017-08-30T05:43:57.223Z,9.00
2017-08-30T05:46:25.557Z,9.53
2017-08-30T05:48:53.906Z,9.07
2017-08-30T05:51:22.386Z,9.17
2017-08-30T05:53:50.725Z,10.00
2017-08-30T05:56:19.069Z,8.57
2017-08-30T05:58:47.426Z,9.57
2017-08-30T06:01:15.765Z,9.10
2017-08-30T06:03:44.143Z,7.83
2017-08-30T06:06:12.486Z,9.20
2017-08-30T06:08:40.929Z,9.03
2017-08-30T06:11:09.346Z,8.63
2017-08-30T06:13:37.719Z,8.90
2017-08-30T06:16:06.050Z,8.60
2017-08-30T06:18:34.391Z,9.20
2017-08-30T06:21:02.782Z,9.77
2017-08-30T06:23:31.122Z,8.93
2017-08-30T06:25:59.466Z,9.73
2017-08-30T06:28:27.806Z,9.10
2017-08-30T06:30:56.250Z,8.40
2017-08-30T06:33:24.626Z,8.63
2017-08-30T06:35:53.063Z,8.80
2017-08-30T06:38:27.262Z,8.70
2017-08-30T06:40:55.650Z,8.80
2017-08-30T06:43:24.005Z,8.27
2017-08-30T06:45:52.413Z,7.93
2017-08-30T06:48:20.754Z,9.07
2017-08-30T06:50:49.148Z,8.93
2017-08-30T06:53:17.505Z,8.40
2017-08-30T06:55:45.845Z,8.60
2017-08-30T06:58:14.186Z,8.73
2017-08-30T07:00:42.564Z,8.70
2017-08-30T07:03:10.965Z,9.10
2017-08-30T07:05:39.343Z,8.63
2017-08-30T07:08:07.756Z,8.50
2017-08-30T07:10:36.121Z,8.93
2017-08-30T07:13:04.539Z,8.00
2017-08-30T07:15:33.026Z,8.87
2017-08-30T07:18:01.371Z,8.27
2017-08-30T07:20:30.530Z,8.30
2017-08-30T07:22:58.927Z,9.00
2017-08-30T07:25:27.317Z,9.43
2017-08-30T07:27:55.695Z,10.30
2017-08-30T07:30:24.091Z,9.10
2017-08-30T07:32:52.426Z,9.70
2017-08-30T07:35:20.767Z,9.50
2017-08-30T07:37:49.102Z,8.80
2017-08-30T07:40:17.461Z,9.10
2017-08-30T07:42:45.992Z,9.60
2017-08-30T07:45:14.447Z,9.37
2017-08-30T07:47:42.842Z,8.43
2017-08-30T07:50:11.238Z,8.80
2017-08-30T07:52:39.621Z,9.43
2017-08-30T07:55:07.958Z,8.60
2017-08-30T07:57:36.321Z,9.13
2017-08-30T08:00:04.702Z,9.43
2017-08-30T08:02:33.179Z,9.83
2017-08-30T08:05:01.990Z,8.50
2017-08-30T08:07:30.333Z,9.60
2017-08-30T08:09:58.723Z,8.87
2017-08-30T08:12:27.081Z,8.50
2017-08-30T08:14:55.410Z,8.20
2017-08-30T08:17:23.830Z,8.53
2017-08-30T08:19:52.229Z,8.10
2017-08-30T08:22:20.595Z,9.17
2017-08-30T08:24:49.015Z,9.83
2017-08-30T08:27:17.386Z,9.07
2017-08-30T08:29:45.826Z,9.63
2017-08-30T08:32:14.194Z,9.00
2017-08-30T08:34:42.554Z,9.47
2017-08-30T08:37:10.970Z,9.47
2017-08-30T08:39:39.399Z,8.63
2017-08-30T08:42:07.731Z,8.63
2017-08-30T08:44:36.555Z,8.33
2017-08-30T08:47:04.901Z,8.90
2017-08-30T08:49:34.374Z,8.70
2017-08-30T08:52:03.154Z,9.10
2017-08-30T08:54:31.750Z,8.40
2017-08-30T08:57:00.090Z,8.47
2017-08-30T08:59:28.460Z,9.10
2017-08-30T09:01:56.798Z,8.77
2017-08-30T09:04:25.240Z,8.73
2017-08-30T09:06:53.606Z,8.60
2017-08-30T09:09:21.956Z,8.50
2017-08-30T09:11:50.326Z,7.87
2017-08-30T09:14:18.659Z,8.90
2017-08-30T09:16:47.011Z,8.83
2017-08-30T09:19:15.370Z,8.43
2017-08-30T09:21:43.737Z,10.17
2017-08-30T09:24:12.094Z,9.27
2017-08-30T09:26:40.547Z,9.13
2017-08-30T09:29:08.930Z,10.33
2017-08-30T09:31:37.276Z,9.93
2017-08-30T09:34:05.694Z,9.97
2017-08-30T09:36:34.034Z,10.47
2017-08-30T09:39:02.374Z,9.80
2017-08-30T09:41:30.730Z,10.80
2017-08-30T09:43:59.169Z,9.60
2017-08-30T09:46:27.531Z,10.40
2017-08-30T09:48:55.915Z,10.40
2017-08-30T09:51:24.260Z,8.77
2017-08-30T09:53:52.593Z,10.73
2017-08-30T09:56:21.039Z,9.73
2017-08-30T09:58:49.427Z,9.50
2017-08-30T10:01:17.766Z,9.30
2017-08-30T10:03:46.320Z,9.60
2017-08-30T10:06:14.710Z,9.73
2017-08-30T10:08:43.088Z,10.07
2017-08-30T10:11:11.674Z,9.37
2017-08-30T10:13:40.053Z,9.03
2017-08-30T10:16:08.474Z,10.07
2017-08-30T10:18:36.842Z,9.80
2017-08-30T10:21:05.257Z,9.40
2017-08-30T10:23:33.714Z,9.70
2017-08-30T10:26:02.083Z,9.80
2017-08-30T10:28:30.421Z,9.33
2017-08-30T10:30:58.764Z,9.17
2017-08-30T10:33:27.226Z,9.57
2017-08-30T10:35:55.597Z,9.40
2017-08-30T10:38:23.938Z,9.23
2017-08-30T10:40:52.378Z,10.53
2017-08-30T10:43:20.725Z,10.13
2017-08-30T10:45:49.161Z,9.23
2017-08-30T10:48:17.563Z,9.07
2017-08-30T10:50:45.974Z,9.67
2017-08-30T10:53:14.353Z,9.93
2017-08-30T10:55:42.746Z,9.90
2017-08-30T10:58:11.081Z,9.90
2017-08-30T11:00:39.442Z,9.60
2017-08-30T11:03:07.781Z,9.30
2017-08-30T11:05:36.113Z,9.53
2017-08-30T11:08:04.491Z,9.53
2017-08-30T11:10:32.870Z,9.20
2017-08-30T11:13:01.275Z,10.53
2017-08-30T11:15:29.641Z,10.13
2017-08-30T11:17:58.010Z,10.27
2017-08-30T11:20:26.378Z,11.20
2017-08-30T11:22:54.737Z,10.17
2017-08-30T11:25:23.118Z,10.20
2017-08-30T11:27:52.035Z,10.70
2017-08-30T11:30:20.382Z,10.47
2017-08-30T11:32:48.735Z,10.77
2017-08-30T11:35:17.206Z,10.50
2017-08-30T11:37:45.593Z,10.40
2017-08-30T11:40:13.945Z,11.27
2017-08-30T11:42:42.388Z,10.33
2017-08-30T11:45:10.734Z,10.90
2017-08-30T11:47:39.124Z,10.40
2017-08-30T11:50:07.475Z,11.10
2017-08-30T11:52:35.842Z,10.80
2017-08-30T11:55:04.235Z,10.87
2017-08-30T11:57:32.570Z,11.00
2017-08-30T12:00:01.014Z,12.17
2017-08-30T12:02:29.757Z,12.43
2017-08-30T12:04:58.123Z,11.10
2017-08-30T12:07:26.465Z,10.90
2017-08-30T12:09:54.845Z,11.40
2017-08-30T12:12:23.259Z,11.90
2017-08-30T12:14:51.719Z,12.17
2017-08-30T12:17:20.092Z,12.70
2017-08-30T12:19:48.483Z,11.00
2017-08-30T12:22:16.841Z,11.40
2017-08-30T12:24:45.189Z,11.37
2017-08-30T12:27:13.531Z,11.50
2017-08-30T12:29:41.927Z,12.00
2017-08-30T12:32:10.311Z,11.80
2017-08-30T12:34:38.654Z,11.83
2017-08-30T12:37:12.749Z,11.90
2017-08-30T12:39:41.093Z,11.60
2017-08-30T12:42:09.545Z,11.50
2017-08-30T12:44:37.886Z,13.27
2017-08-30T12:47:06.239Z,12.73
2017-08-30T12:49:34.678Z,12.83
2017-08-30T12:52:03.169Z,13.57
2017-08-30T12:54:31.558Z,12.77
2017-08-30T12:56:59.910Z,12.80
2017-08-30T12:59:28.350Z,12.20
2017-08-30T13:01:56.742Z,11.87
2017-08-30T13:04:25.111Z,11.87
2017-08-30T13:06:53.495Z,12.03
2017-08-30T13:09:21.907Z,11.87
2017-08-30T13:11:50.256Z,11.70
2017-08-30T13:14:18.594Z,12.57
2017-08-30T13:16:46.942Z,11.67
2017-08-30T13:19:15.294Z,12.50
2017-08-30T13:21:43.668Z,12.43
2017-08-30T13:24:12.066Z,12.37
2017-08-30T13:26:40.454Z,12.00
2017-08-30T13:29:09.279Z,12.30
2017-08-30T13:31:37.689Z,11.40
2017-08-30T13:34:06.030Z,11.83
2017-08-30T13:36:34.514Z,11.50
2017-08-30T13:39:02.898Z,11.80
2017-08-30T13:41:31.277Z,11.73
2017-08-30T13:43:59.627Z,11.90
2017-08-30T13:46:27.995Z,11.20
2017-08-30T13:48:56.394Z,11.90
2017-08-30T13:51:24.738Z,11.97
2017-08-30T13:53:53.268Z,11.50
2017-08-30T13:56:21.638Z,12.17
2017-08-30T13:58:50.058Z,11.73
2017-08-30T14:01:18.647Z,12.30
2017-08-30T14:03:46.985Z,11.90
2017-08-30T14:06:15.334Z,12.07
2017-08-30T14:08:43.968Z,12.07
2017-08-30T14:11:12.385Z,11.77
2017-08-30T14:13:41.147Z,12.20
2017-08-30T14:16:09.566Z,12.57
2017-08-30T14:18:38.003Z,12.40
2017-08-30T14:21:06.397Z,11.80
2017-08-30T14:23:34.742Z,12.47
2017-08-30T14:26:03.142Z,12.30
2017-08-30T14:28:31.572Z,12.40
2017-08-30T14:30:59.917Z,12.50
2017-08-30T14:33:28.257Z,12.73
2017-08-30T14:35:56.718Z,13.40
2017-08-30T14:38:25.127Z,12.53
2017-08-30T14:40:53.472Z,12.60
2017-08-30T14:43:21.847Z,11.43
2017-08-30T14:45:50.402Z,12.77
2017-08-30T14:48:18.762Z,12.80
2017-08-30T14:50:47.110Z,13.20
2017-08-30T14:53:15.455Z,12.97
2017-08-30T14:55:43.874Z,12.57
2017-08-30T14:58:12.257Z,11.70
2017-08-30T15:00:40.622Z,11.70
2017-08-30T15:03:08.961Z,12.67
2017-08-30T15:05:37.340Z,11.43
2017-08-30T15:08:05.687Z,11.47
2017-08-30T15:10:34.119Z,11.23
2017-08-30T15:13:03.338Z,12.90
2017-08-30T15:15:31.857Z,12.33
2017-08-30T15:18:00.194Z,13.37
2017-08-30T15:20:28.545Z,12.10
2017-08-30T15:22:56.959Z,12.30
2017-08-30T15:25:25.385Z,12.57
2017-08-30T15:27:53.730Z,12.13
2017-08-30T15:30:22.166Z,12.50
2017-08-30T15:32:50.514Z,13.10
2017-08-30T15:35:18.882Z,13.07
2017-08-30T15:37:47.235Z,13.67
2017-08-30T15:40:15.599Z,12.47
2017-08-30T15:42:44.033Z,12.13
2017-08-30T15:45:12.386Z,12.97
2017-08-30T15:47:40.748Z,13.47
2017-08-30T15:50:09.206Z,12.90
2017-08-30T15:52:38.779Z,13.43
2017-08-30T15:55:08.075Z,12.80
2017-08-30T15:57:37.151Z,13.10
2017-08-30T16:00:06.001Z,14.00
2017-08-30T16:02:34.740Z,13.43
2017-08-30T16:05:03.150Z,14.30
2017-08-30T16:07:31.525Z,14.20
2017-08-30T16:09:59.914Z,14.33
2017-08-30T16:12:28.341Z,13.90
2017-08-30T16:14:56.669Z,13.90
2017-08-30T16:17:25.013Z,13.10
2017-08-30T16:19:53.389Z,14.07
2017-08-30T16:22:21.782Z,14.00
2017-08-30T16:24:50.166Z,13.43
2017-08-30T16:27:18.622Z,14.00
2017-08-30T16:29:46.961Z,14.47
2017-08-30T16:32:15.329Z,12.60
2017-08-30T16:34:43.679Z,13.90
2017-08-30T16:37:12.049Z,14.83
2017-08-30T16:39:40.402Z,13.70
2017-08-30T16:42:08.783Z,14.30
2017-08-30T16:44:37.425Z,13.00
2017-08-30T16:47:05.786Z,13.97
2017-08-30T16:49:34.208Z,14.60
2017-08-30T16:52:02.559Z,14.50
2017-08-30T16:54:30.963Z,15.67
2017-08-30T16:56:59.312Z,14.73
2017-08-30T16:59:27.667Z,16.33
2017-08-30T17:01:56.041Z,16.30
2017-08-30T17:04:24.402Z,14.73
2017-08-30T17:06:52.775Z,15.37
2017-08-30T17:09:21.119Z,15.00
2017-08-30T17:11:49.490Z,15.37
2017-08-30T17:14:17.921Z,14.93
2017-08-30T17:16:46.278Z,14.77
2017-08-30T17:19:14.639Z,15.50
2017-08-30T17:21:43.096Z,15.97
2017-08-30T17:24:11.438Z,16.33
2017-08-30T17:26:39.792Z,15.20
2017-08-30T17:29:08.152Z,15.00
2017-08-30T17:31:36.644Z,14.63
2017-08-30T17:34:05.033Z,14.73
2017-08-30T17:36:33.531Z,14.80
2017-08-30T17:39:01.872Z,14.43
2017-08-30T17:41:30.309Z,14.57
2017-08-30T17:43:58.687Z,15.57
2017-08-30T17:46:27.816Z,13.77
2017-08-30T17:48:56.202Z,14.47
2017-08-30T17:51:24.548Z,13.57
2017-08-30T17:53:52.922Z,13.60
2017-08-30T17:56:21.275Z,13.83
2017-08-30T17:58:49.764Z,13.33
2017-08-30T18:01:18.107Z,13.73
2017-08-30T18:03:46.464Z,13.53
2017-08-30T18:06:14.838Z,13.10
2017-08-30T18:08:43.187Z,12.50
2017-08-30T18:11:11.615Z,12.20
2017-08-30T18:13:39.985Z,12.57
2017-08-30T18:16:08.398Z,12.53
2017-08-30T18:18:36.758Z,12.47
2017-08-30T18:21:05.170Z,12.10
2017-08-30T18:23:34.436Z,12.93
2017-08-30T18:26:03.716Z,12.63
2017-08-30T18:28:32.095Z,11.10
2017-08-30T18:31:00.498Z,11.80
2017-08-30T18:33:28.875Z,11.80
2017-08-30T18:35:57.215Z,11.53
2017-08-30T18:38:25.566Z,12.33
2017-08-30T18:40:54.046Z,11.80
2017-08-30T18:43:22.473Z,11.03
2017-08-30T18:45:50.865Z,11.07
2017-08-30T18:48:19.255Z,11.00
2017-08-30T18:50:47.598Z,11.97
2017-08-30T18:53:15.942Z,11.20
2017-08-30T18:55:44.294Z,11.40
2017-08-30T18:58:12.702Z,11.93
2017-08-30T19:00:41.074Z,12.30
2017-08-30T19:03:09.570Z,11.77
2017-08-30T19:05:37.919Z,11.40
2017-08-30T19:08:06.263Z,11.30
2017-08-30T19:10:34.626Z,11.83
2017-08-30T19:13:02.973Z,12.13
2017-08-30T19:15:31.421Z,11.20
2017-08-30T19:17:59.810Z,11.27
2017-08-30T19:20:28.190Z,12.00
2017-08-30T19:22:56.575Z,11.20
2017-08-30T19:25:25.505Z,10.97
2017-08-30T19:27:54.273Z,10.47
2017-08-30T19:30:22.700Z,11.33
2017-08-30T19:32:51.185Z,10.53
2017-08-30T19:35:19.540Z,12.27
2017-08-30T19:37:47.974Z,11.90
2017-08-30T19:40:16.362Z,10.33
2017-08-30T19:42:44.706Z,10.77
2017-08-30T19:45:13.079Z,11.23
2017-08-30T19:47:41.428Z,12.03
2017-08-30T19:50:09.838Z,12.20
2017-08-30T19:52:38.203Z,12.03
2017-08-30T19:55:06.542Z,11.33
2017-08-30T19:57:34.931Z,13.40
2017-08-30T20:00:03.500Z,11.60
2017-08-30T20:02:31.886Z,11.80
2017-08-30T20:05:00.307Z,10.00
2017-08-30T20:07:28.652Z,11.73
2017-08-30T20:09:57.063Z,11.90
2017-08-30T20:12:25.441Z,11.70
2017-08-30T20:14:53.847Z,10.93
2017-08-30T20:17:22.202Z,12.13
2017-08-30T20:19:50.628Z,12.00
2017-08-30T20:22:19.125Z,11.60
2017-08-30T20:24:47.510Z,12.00
2017-08-30T20:27:15.856Z,10.83
2017-08-30T20:29:44.275Z,11.70
2017-08-30T20:32:12.690Z,12.07
2017-08-30T20:34:41.083Z,11.30
2017-08-30T20:37:09.431Z,12.10
2017-08-30T20:39:37.782Z,11.97
2017-08-30T20:42:06.160Z,11.80
2017-08-30T20:44:34.538Z,11.37
2017-08-30T20:47:02.930Z,11.60
2017-08-30T20:49:31.278Z,11.87
2017-08-30T20:51:59.729Z,11.93
2017-08-30T20:54:28.213Z,11.03
2017-08-30T20:56:56.594Z,11.77
2017-08-30T20:59:25.003Z,11.13
2017-08-30T21:01:53.383Z,11.27
2017-08-30T21:04:21.845Z,11.90
2017-08-30T21:06:50.262Z,12.20
2017-08-30T21:09:18.615Z,10.77
2017-08-30T21:11:47.050Z,9.40
2017-08-30T21:14:15.446Z,10.50
2017-08-30T21:16:44.033Z,10.97
2017-08-30T21:19:12.434Z,11.73
2017-08-30T21:21:40.784Z,10.27
2017-08-30T21:24:09.130Z,12.50
2017-08-30T21:26:37.508Z,11.27
2017-08-30T21:29:05.882Z,11.57
2017-08-30T21:31:34.419Z,11.13
2017-08-30T21:34:02.873Z,11.50
2017-08-30T21:36:31.232Z,10.57
2017-08-30T21:38:59.658Z,9.13
2017-08-30T21:41:27.994Z,11.63
2017-08-30T21:43:56.354Z,11.63
2017-08-30T21:46:24.687Z,10.83
2017-08-30T21:48:53.027Z,10.77
2017-08-30T21:51:21.411Z,11.80
2017-08-30T21:53:49.794Z,12.83
2017-08-30T21:56:18.198Z,12.73
2017-08-30T21:58:46.562Z,11.70
2017-08-30T22:01:14.911Z,12.00
2017-08-30T22:03:43.246Z,11.70
2017-08-30T22:06:11.609Z,12.13
2017-08-30T22:08:40.194Z,12.80
2017-08-30T22:11:08.550Z,11.00
2017-08-30T22:13:36.941Z,10.37
2017-08-30T22:16:05.319Z,12.43
2017-08-30T22:18:33.670Z,11.93
2017-08-30T22:21:02.116Z,11.53
2017-08-30T22:23:30.502Z,12.70
2017-08-30T22:25:58.893Z,12.77
2017-08-30T22:28:27.291Z,12.73
2017-08-30T22:30:55.678Z,11.27
2017-08-30T22:33:24.066Z,10.33
2017-08-30T22:35:52.409Z,10.10
2017-08-30T22:38:20.812Z,9.70
2017-08-30T22:40:49.139Z,9.90
2017-08-30T22:43:17.516Z,9.80
2017-08-30T22:45:45.914Z,9.20
2017-08-30T22:48:14.315Z,8.40
2017-08-30T22:50:42.711Z,8.97
2017-08-30T22:53:11.042Z,9.13
2017-08-30T22:55:39.382Z,8.77
2017-08-30T22:58:07.734Z,8.63
2017-08-30T23:00:36.112Z,9.27
2017-08-30T23:03:04.560Z,8.30
2017-08-30T23:05:32.984Z,8.60
2017-08-30T23:08:02.257Z,7.40
2017-08-30T23:10:30.658Z,7.50
2017-08-30T23:12:58.998Z,7.47
2017-08-30T23:15:27.448Z,8.20
2017-08-30T23:17:55.774Z,7.80
2017-08-30T23:20:24.118Z,7.50
2017-08-30T23:22:52.451Z,7.60
2017-08-30T23:25:20.905Z,7.43
2017-08-30T23:27:49.251Z,8.43
2017-08-30T23:30:17.687Z,7.30
2017-08-30T23:32:46.078Z,7.10
2017-08-30T23:35:14.474Z,7.53
2017-08-30T23:37:42.872Z,8.20
2017-08-30T23:40:11.224Z,7.90
2017-08-30T23:42:39.638Z,8.20
2017-08-30T23:45:08.034Z,7.50
2017-08-30T23:47:36.432Z,7.30
2017-08-30T23:50:04.779Z,8.10
2017-08-30T23:52:33.210Z,7.60
2017-08-30T23:55:01.555Z,7.50
2017-08-30T23:57:29.990Z,7.60
2017-08-30T23:59:58.382Z,7.70
